Richboro, PA (18954)

7:59 PM EDT on August 21, 2014 (GMT -0400)
KPARICHB3 | Change Station
CLOSE
Current Station
Personal Weather Station
Location: Richboro, PA
Elevation: 358 ft
Nearby Weather Stations

Elev 358 ft 40.22 °N, 75.01 °W | Updated 4 minutes ago

Scattered Clouds
Scattered Clouds
75.2 °F
Feels Like 76 °F
N
0.0
Wind Variable Wind from SE
Gusts 0.0 mph

Today
High -- | Low -- °F
--% Chance of Precip.
Yesterday
High -- | Low -- °F
Precip. -- in
6:16 AM 7:48 PM
Waning Crescent, 11% visible
Pressure 29.98 in
Visibility 10.0 miles
Clouds Scattered Clouds 3400 ft
Heat Index 76 °F
Dew Point 68 °F
Humidity 75%
Rainfall 0.00 in
Snow Depth Not available.
UV 0 out of 12
Pollen 9.00 out of 12
Air Quality Not available.
Flu Activity Not available.
METAR KDYL 212354Z AUTO 15006KT 10SM SCT034 23/19 A2999 RMK AO2 LTG DSNT N AND NE SLP152 T02330189 10272 20233 55000

More Conditions Fewer Conditions

Pressure 29.98 in
Visibility 10.0 miles
Clouds Scattered Clouds 3400 ft
Heat Index 76 °F
Dew Point 68 °F
Humidity 75%
Rainfall 0.00 in
Snow Depth Not available.
UV 0 out of 12
Pollen 9.00 out of 12
Air Quality Not available.
Flu Activity Not available.
METAR KDYL 212354Z AUTO 15006KT 10SM SCT034 23/19 A2999 RMK AO2 LTG DSNT N AND NE SLP152 T02330189 10272 20233 55000

More Conditions Fewer Conditions

10-Day Weather Forecast

Almanac

Astronomy

Aug. 21, 2014 Rise Set
Actual Time 6:16 AM EDT 7:48 PM EDT
Civil Twilight 5:48 AM EDT 8:17 PM EDT
Nautical Twilight 5:13 AM EDT 8:51 PM EDT
Astronomical Twilight 4:37 AM EDT 9:27 PM EDT
Moon 2:45 AM EDT 5:15 PM EDT
Length of Visible Light 14h 28m
Length of Day
13h 31m
Tomorrow will be 2m 26s shorter.
Waning Crescent, 11% of the Moon is Illuminated
Today
Waning Crescent
Aug 25
New
Sep 2
First Quarter
Sep 8
Full
Sep 15
Last Quarter

Today's Extremes

State Highs State Lows

Community

WunderPhotos

Upload Photos

1,746,055 photos uploaded!

Nearby

Snow Depth

Station Depth Elevation
No new snow has been reported.

Earthquake Activity

City Distance Mag. Time & Date
No recent earthquake activity has been reported nearby.
Minimum magnitude displayed is 2.5.

Coastal Water Temperatures

Place Temperature
No Stations Reporting

Nearby Weather Stations